Schedule Details


Flight Number: CTN673
Departure: Pula (LDPL) at 16:30
Arrival: Franjo Tudman (LDZA) at 17:10
Route: RJK UT742 KOTOR

Weather Information
LDPL 191100Z 27006KT 9999 FEW055 11/08 Q1019 NOSIG
LDZA 191100Z VRB02KT CAVOK 10/01 Q1020 NOSIG
Schedule Frequency

Route Map